Flight Track Log - Related Links

Times and Time Zones

All times are in EDT time to prevent confusion due to time zone crossing. See the SWA1021 flight status page for this flight to view local times or setup timezone preferences in your user account.

Time Position Orientation Groundspeed Altitude Reporting Facility
EDT Latitude Longitude Course Direction KTS MPH feet Rate Location/Type
Sat 10:23:08 AM 28.4167 -81.3000 204° Southwest 154 177 800  Level Orlando TRACON
Sat 10:24:26 AM 28.3500 -81.3333 204° Southwest 206 237 3,900 2,905 Climbing Orlando TRACON
Sat 10:25:14 AM 28.3333 -81.4000 254° West 221 254 6,900 3,421 Climbing Orlando TRACON
Sat 10:26:20 AM 28.3333 -81.4667 270° West 225 259 10,400 3,273 Climbing Orlando TRACON
Sat 10:27:15 AM 28.3333 -81.5333 270° West 243 280 13,500 2,069 Climbing Orlando TRACON
Sat 10:29:14 AM 28.3242 -81.7253 267° West 287 330 16,400 1,810 Climbing Jacksonville Center
Sat 10:30:14 AM 28.3231 -81.8408 269° West 339 390 18,900 2,400 Climbing Jacksonville Center
Sat 10:31:14 AM 28.3178 -81.9658 267° West 379 436 21,200 2,300 Climbing Jacksonville Center
Sat 10:32:14 AM 28.3164 -82.0933 269° West 405 466 23,500 2,300 Climbing Jacksonville Center
Sat 10:33:14 AM 28.3150 -82.2206 269° West 405 466 25,800 1,250 Climbing Jacksonville Center
Sat 10:34:14 AM 28.3117 -82.3503 268° West 410 472 26,000 100 Climbing Jacksonville Center
Sat 10:35:14 AM 28.3119 -82.4775 270° West 410 472 26,000  Level Jacksonville Center
Sat 10:36:14 AM 28.3875 -82.5694 313° West 370 426 26,000  Level Jacksonville Center
Sat 10:37:14 AM 28.5022 -82.6139 341° North 382 440 26,000 600 Level Jacksonville Center
Sat 10:38:14 AM 28.6131 -82.6536 343° North 387 445 27,200 1,300 Climbing Jacksonville Center
Sat 10:39:14 AM 28.7236 -82.7078 337° Northwest 411 473 28,600 1,600 Climbing Jacksonville Center
Sat 10:40:14 AM 28.8239 -82.7883 325° Northwest 423 487 30,400 1,700 Climbing Jacksonville Center
Sat 10:41:14 AM 28.9222 -82.8642 326° Northwest 435 501 32,000 800 Climbing Jacksonville Center
Sat 10:42:14 AM 29.0222 -82.9400 326° Northwest 435 501 32,000  Level Jacksonville Center
Sat 10:43:14 AM 29.1225 -83.0161 326° Northwest 435 501 32,000  Level Jacksonville Center
Sat 10:44:14 AM 29.2206 -83.0925 326° Northwest 430 495 32,000  Level Jacksonville Center
Sat 10:45:14 AM 29.3183 -83.1664 327° Northwest 425 489 32,000  Level Jacksonville Center
Sat 10:46:14 AM 29.4164 -83.2406 327° Northwest 425 489 32,000  Level Jacksonville Center
Sat 10:47:14 AM 29.5122 -83.3150 326° Northwest 419 482 32,000  Level Jacksonville Center
Sat 10:48:14 AM 29.6100 -83.3919 326° Northwest 419 482 32,000  Level Jacksonville Center
Sat 10:49:14 AM 29.6975 -83.4592 326° Northwest 419 482 32,000  Level Jacksonville Center
Sat 10:50:14 AM 29.7953 -83.5339 326° Northwest 419 482 32,000  Level Jacksonville Center
Sat 10:51:14 AM 29.8908 -83.6089 326° Northwest 419 482 32,000  Level Jacksonville Center
Sat 10:52:14 AM 29.9883 -83.6839 326° Northwest 419 482 32,000  Level Jacksonville Center
Sat 10:53:14 AM 30.0881 -83.7617 326° Northwest 419 482 32,000  Level Jacksonville Center
Sat 10:54:14 AM 30.1878 -83.8394 326° Northwest 424 488 32,000  Level Jacksonville Center
Sat 10:55:14 AM 30.2853 -83.9150 326° Northwest 424 488 32,000  Level Jacksonville Center
Sat 10:56:14 AM 30.3869 -83.9931 326° Northwest 424 488 32,000  Level Jacksonville Center
Sat 10:57:14 AM 30.4844 -84.0736 325° Northwest 424 488 32,000  Level Jacksonville Center
Sat 10:58:14 AM 30.5903 -84.1547 327° Northwest 424 488 32,000  Level Jacksonville Center
Sat 10:59:14 AM 30.6917 -84.2358 325° Northwest 424 488 32,000 -100 Level Jacksonville Center
Sat 11:00:14 AM 30.7931 -84.3147 326° Northwest 424 488 31,800 -650 Descending Jacksonville Center
Sat 11:01:14 AM 30.8883 -84.3933 325° Northwest 424 488 30,700 -900 Descending Jacksonville Center
Sat 11:02:14 AM 30.9833 -84.4678 326° Northwest 419 482 30,000 -350 Descending Jacksonville Center
Sat 11:03:14 AM 31.0806 -84.5469 325° Northwest 419 482 30,000  Level Jacksonville Center
Sat 11:04:14 AM 31.1797 -84.6239 326° Northwest 419 482 30,000  Level Jacksonville Center
Sat 11:06:34 AM 31.3978 -84.8028 325° Northwest 426 490 30,000  Level Atlanta Center
Sat 11:07:34 AM 31.4994 -84.8839 326° Northwest 426 490 30,000 -350 Level Atlanta Center
Sat 11:08:34 AM 31.5969 -84.9628 325° Northwest 426 490 29,300 -800 Descending Atlanta Center
Sat 11:09:34 AM 31.6967 -85.0419 326° Northwest 426 490 28,400 -950 Descending Atlanta Center
Sat 11:10:34 AM 31.7942 -85.1214 325° Northwest 426 490 27,400 -1,050 Descending Atlanta Center
Sat 11:11:34 AM 31.8997 -85.2058 326° Northwest 421 484 26,300 -850 Descending Atlanta Center
Sat 11:12:34 AM 31.9969 -85.2853 325° Northwest 421 484 25,700 -750 Descending Atlanta Center
Sat 11:13:34 AM 32.0942 -85.3678 324° Northwest 421 484 24,800 -850 Descending Atlanta Center
Sat 11:14:34 AM 32.1936 -85.4475 326° Northwest 421 484 24,000 -400 Descending Atlanta Center
Sat 11:15:34 AM 32.2950 -85.5278 326° Northwest 427 491 24,000  Level Atlanta Center
Sat 11:16:34 AM 32.3942 -85.6131 324° Northwest 427 491 24,000  Level Atlanta Center
Sat 11:17:34 AM 32.4953 -85.6939 326° Northwest 432 497 24,000  Level Atlanta Center
Sat 11:18:34 AM 32.5944 -85.7769 325° Northwest 442 509 24,000  Level Atlanta Center
Sat 11:19:34 AM 32.6953 -85.8628 324° Northwest 442 509 24,000  Level Atlanta Center
Sat 11:20:34 AM 32.7983 -85.9467 326° Northwest 442 509 24,000  Level Atlanta Center
Sat 11:21:34 AM 32.8933 -86.0253 325° Northwest 447 514 24,000  Level Atlanta Center
Sat 11:22:34 AM 32.9858 -86.1067 324° Northwest 427 491 24,000  Level Atlanta Center
Sat 11:23:34 AM 33.0722 -86.1806 324° Northwest 422 486 24,000  Level Atlanta Center
Sat 11:24:34 AM 33.1647 -86.2572 325° Northwest 422 486 24,000  Level Atlanta Center
Sat 11:25:34 AM 33.2553 -86.3367 324° Northwest 415 478 24,000  Level Atlanta Center
Sat 11:26:34 AM 33.3478 -86.4136 325° Northwest 410 472 24,000  Level Atlanta Center
Sat 11:27:34 AM 33.4464 -86.4936 326° Northwest 396 456 24,000  Level Atlanta Center
Sat 11:28:34 AM 33.5344 -86.5733 323° Northwest 401 461 24,000 450 Level Atlanta Center
Sat 11:29:34 AM 33.6267 -86.6533 324° Northwest 401 461 24,900 2,250 Climbing Atlanta Center
Sat 11:30:34 AM 33.7128 -86.7258 325° Northwest 401 461 28,500 1,916 Climbing Atlanta Center
Sat 11:32:20 AM 33.8731 -86.8672 324° Northwest 398 458 30,200 1,048 Climbing Memphis Center
Sat 11:33:20 AM 33.9736 -86.9508 325° Northwest 417 480 31,400 1,350 Climbing Memphis Center
Sat 11:34:20 AM 34.0697 -87.0372 323° Northwest 437 503 32,900 1,300 Climbing Memphis Center
Sat 11:35:20 AM 34.1681 -87.1239 324° Northwest 437 503 34,000 550 Climbing Memphis Center
Sat 11:36:20 AM 34.2597 -87.2008 325° Northwest 432 497 34,000 700 Level Memphis Center
Sat 11:37:20 AM 34.3472 -87.2756 325° Northwest 416 479 35,400 2,500 Climbing Memphis Center
Sat 11:38:20 AM 34.4494 -87.3600 326° Northwest 408 470 39,000 1,800 Climbing Memphis Center
Sat 11:39:20 AM 34.5328 -87.4403 322° Northwest 392 451 39,000  Level Memphis Center
Sat 11:40:20 AM 34.6053 -87.5083 322° Northwest 380 437 39,000  Level Memphis Center
Sat 11:41:20 AM 34.7031 -87.5883 326° Northwest 374 430 39,000 150 Level Memphis Center
Sat 11:42:20 AM 34.7883 -87.6667 323° Northwest 374 430 39,300 500 Climbing Memphis Center
Sat 11:43:20 AM 34.8650 -87.7375 323° Northwest 384 442 40,000 350 Climbing Memphis Center
Sat 11:44:20 AM 34.9583 -87.8208 324° Northwest 379 436 40,000  Level Memphis Center
Sat 11:45:20 AM 35.0497 -87.8992 325° Northwest 385 443 40,000  Level Memphis Center
Sat 11:46:20 AM 35.1242 -87.9681 323° Northwest 390 449 40,000  Level Memphis Center
Sat 11:47:20 AM 35.2239 -88.0567 324° Northwest 390 449 40,000  Level Memphis Center
Sat 11:48:20 AM 35.3086 -88.1358 323° Northwest 390 449 40,000  Level Memphis Center
Sat 11:49:20 AM 35.3956 -88.2125 324° Northwest 390 449 40,000  Level Memphis Center
Sat 11:50:20 AM 35.4822 -88.2867 325° Northwest 385 443 40,000  Level Memphis Center
Sat 11:51:20 AM 35.5669 -88.3689 322° Northwest 385 443 40,000  Level Memphis Center
Sat 11:52:20 AM 35.6558 -88.4483 324° Northwest 390 449 40,000  Level Memphis Center
Sat 11:53:20 AM 35.7467 -88.5281 325° Northwest 396 456 40,000  Level Memphis Center
Sat 11:54:20 AM 35.8378 -88.6131 323° Northwest 401 461 40,000  Level Memphis Center
Sat 11:55:20 AM 35.9286 -88.6958 324° Northwest 401 461 40,000  Level Memphis Center
Sat 11:56:20 AM 36.0192 -88.7814 323° Northwest 406 467 40,000  Level Memphis Center
Sat 11:57:20 AM 36.1100 -88.8669 323° Northwest 406 467 40,000 -50 Level Memphis Center
Sat 11:58:20 AM 36.2028 -88.9500 324° Northwest 406 467 39,900 -500 Descending Memphis Center
Sat 11:59:20 AM 36.2975 -89.0358 324° Northwest 406 467 39,000 -950 Descending Memphis Center
Sat 12:00:20 PM 36.3981 -89.0883 337° Northwest 423 487 38,000 -950 Descending Memphis Center
Sat 12:01:20 PM 36.5114 -89.1564 334° Northwest 436 502 37,100 -950 Descending Memphis Center
Sat 12:02:20 PM 36.6203 -89.2219 334° Northwest 436 502 36,100 -950 Descending Memphis Center
Sat 12:03:20 PM 36.7314 -89.2800 337° Northwest 436 502 35,200 -1,450 Descending Memphis Center
Sat 12:04:20 PM 36.8606 -89.2964 354° North 443 510 33,200 -1,500 Descending Memphis Center
Sat 12:05:20 PM 36.9736 -89.3572 337° Northwest 443 510 32,200 -1,650 Descending Memphis Center
Sat 12:06:20 PM 37.0661 -89.4392 325° Northwest 422 486 29,900 -1,833 Descending Memphis Center
Sat 12:08:43 PM 37.2908 -89.6108 329° Northwest 395 455 26,000 -1,141 Descending Kansas City Center
Sat 12:09:45 PM 37.3936 -89.6628 338° Northwest 398 458 26,000  Level Kansas City Center
Sat 12:10:47 PM 37.4953 -89.7186 336° Northwest 398 458 26,000 -919 Level Kansas City Center
Sat 12:11:49 PM 37.6064 -89.7808 336° Northwest 393 452 24,100 -1,984 Descending Kansas City Center
Sat 12:12:51 PM 37.7031 -89.8344 336° Northwest 384 442 21,900 -2,081 Descending Kansas City Center
Sat 12:13:53 PM 37.7967 -89.8861 336° Northwest 372 428 19,800 -2,032 Descending Kansas City Center
Sat 12:14:55 PM 37.8975 -89.9406 337° Northwest 360 414 17,700 -2,146 Descending Kansas City Center
Sat 12:15:56 PM 37.9908 -89.9900 337° Northwest 342 394 15,400 -2,098 Descending Kansas City Center
Sat 12:16:58 PM 38.0744 -90.0392 335° Northwest 334 384 13,400 -1,935 Descending Kansas City Center
Sat 12:18:00 PM 38.1597 -90.0750 342° North 323 372 11,400 -1,548 Descending Kansas City Center
Sat 12:19:02 PM 38.2458 -90.0817 357° North 313 360 10,200 -823 Descending Kansas City Center
Sat 12:20:04 PM 38.3222 -90.0903 355° North 290 334 9,700 -1,016 Descending Kansas City Center
Sat 12:21:06 PM 38.4011 -90.1053 352° North 266 306 8,100 -1,548 Descending Kansas City Center
Sat 12:22:08 PM 38.4628 -90.1253 346° North 259 298 6,500 -1,452 Descending Kansas City Center
Sat 12:23:10 PM 38.5428 -90.1483 347° North 253 291 5,100 -1,268 Descending Kansas City Center
Sat 12:24:11 PM 38.6022 -90.1747 341° North 239 275 3,900 -1,024 Descending Kansas City Center
Sat 12:25:13 PM 38.6561 -90.2106 333° Northwest 227 261 3,000 -774 Descending Kansas City Center
Sat 12:26:15 PM 38.6928 -90.2469 322° Northwest 191 220 2,300 -677 Descending Kansas City Center
Sat 12:27:17 PM 38.7136 -90.2878 303° West 157 181 1,600 -774 Descending Kansas City Center
Sat 12:28:19 PM 38.7372 -90.3358 302° West 141 162 700 -484 Descending Kansas City Center
Sat 12:29:21 PM 38.7567 -90.3761 302° West 140 161 600 -97 Descending Kansas City Center

Login

Don't have an account? Register now (free) for customized features, flight alerts, and more!